Terminal Aerodrome Forecast
Issued by NWS

Home | Current Version | Previous Version | Text Only | Print | Product List | Glossary On
Versions: 1 2 3 4 5 6 7 8 9 10 11 12 13 14 15 16 17 18 19
606
FTAK31 PAJN 282324
TAFASI
TAF
PASI 282324Z 2900/2924 22007KT P6SM VCSH SCT022 BKN035 OVC045
      TEMPO 2900/2904 5SM -SHRA BR BKN025
     FM290600 15006KT P6SM -SHRA SCT015 BKN025 OVC035
     FM292100 22007KT P6SM -SHRA SCT015 BKN025 OVC040=

USA.gov is the U.S. government's official web portal to all federal, state and local government web resources and services.